Argyle, Illinois
Current Conditions -  °F | °C
As of 8:54 PM on Monday 20 Oct 2014 (Local Time) from KRFD Reporting Station
Broken Clouds Broken Clouds  
Wind Chill: 51°   Ceiling: 6000
Heat Index: 51°   Visibility: 10mi
Dew Point: 40°   Wind: 6mph
Humidity: 66%   Direction: 20°NNE
Pressure: 30.03"   Gusts: NA
Location:  42.3911°N, 88.9094°W
Report Text: KRFD 210154Z 02005KT 10SM BKN060 11/04 A3003 RMK AO2 SLP170 T01060044
Loading
Personal Weather Stations






























Interactive Weather Map
Tropical Storm Tracking
New forecast layout! Learn more

10-Day Weather Forecast

Advertisements
Track Severe Weather on mobile